Time;durP1;ratioP1;P1;durP2;ratioP2;P2;SDS_P1;SDS_P2;PMS_P1;PMS_P2;Temp;Humidity;BMP_temperature;BMP_pressure;BME280_temperature;BME280_humidity;BME280_pressure;Samples;Min_cycle;Max_cycle;Signal;HPM_P1;HPM_P2
2021/12/02 00:01:37;;;;;;;0.90;0.90;;;19.90;41.10;;;;;;4986601;28;20220;-69
2021/12/02 00:04:03;;;;;;;0.93;0.90;;;19.90;41.20;;;;;;5002082;28;20220;-69
2021/12/02 00:06:29;;;;;;;1.00;0.90;;;19.90;41.10;;;;;;5000616;28;20704;-69
2021/12/02 00:08:55;;;;;;;1.20;1.10;;;19.90;41.10;;;;;;5000732;28;20428;-69
2021/12/02 00:11:22;;;;;;;1.30;1.20;;;19.90;41.10;;;;;;5004038;28;20557;-69
2021/12/02 00:16:25;;;;;;;2.33;1.50;;;19.90;41.10;;;;;;5001364;28;20436;-68
2021/12/02 00:21:24;;;;;;;0.97;0.90;;;19.90;41.10;;;;;;5000202;28;20429;-69
2021/12/02 00:24:07;;;;;;;1.40;1.30;;;19.90;41.10;;;;;;5002091;28;20243;-69
2021/12/02 00:26:36;;;;;;;1.10;1.00;;;19.90;41.10;;;;;;4998388;28;20452;-70
2021/12/02 00:29:04;;;;;;;1.07;1.00;;;19.90;41.10;;;;;;5000821;28;20440;-69
2021/12/02 00:31:33;;;;;;;1.10;1.00;;;19.90;41.10;;;;;;5000969;28;20525;-69
2021/12/02 00:34:01;;;;;;;1.30;1.20;;;19.90;41.10;;;;;;4998859;28;20552;-69
2021/12/02 00:36:28;;;;;;;1.20;0.93;;;19.90;41.10;;;;;;5000690;28;20831;-69
2021/12/02 00:38:56;;;;;;;1.13;1.03;;;19.90;41.10;;;;;;5001207;28;20915;-69
2021/12/02 00:41:27;;;;;;;1.23;1.13;;;19.90;41.10;;;;;;5000429;28;20493;-69
2021/12/02 00:43:54;;;;;;;1.00;0.90;;;19.90;41.10;;;;;;5001362;28;20425;-68
2021/12/02 00:46:26;;;;;;;0.90;0.90;;;19.90;41.00;;;;;;4999894;28;20458;-68
2021/12/02 00:48:53;;;;;;;1.20;1.00;;;19.90;41.00;;;;;;5000765;28;20453;-69
2021/12/02 00:51:19;;;;;;;1.10;0.90;;;19.90;41.00;;;;;;5001084;28;20447;-69
2021/12/02 00:53:52;;;;;;;1.10;1.00;;;19.90;41.10;;;;;;5001597;28;20807;-69
2021/12/02 00:56:22;;;;;;;1.10;1.00;;;19.90;41.00;;;;;;5000437;28;20465;-69
2021/12/02 00:58:48;;;;;;;1.47;1.20;;;19.90;41.00;;;;;;4999515;28;20982;-68
2021/12/02 01:01:15;;;;;;;1.00;0.90;;;19.90;41.00;;;;;;5003972;28;20430;-69
2021/12/02 01:03:42;;;;;;;1.07;1.00;;;19.90;41.10;;;;;;5006093;28;20445;-69
2021/12/02 01:06:08;;;;;;;1.57;1.10;;;19.90;41.00;;;;;;5001531;28;20472;-68
2021/12/02 01:08:35;;;;;;;1.07;0.90;;;19.90;41.10;;;;;;5000434;28;20521;-69
2021/12/02 01:11:02;;;;;;;1.30;1.20;;;19.90;41.00;;;;;;5001501;28;20732;-68
2021/12/02 01:13:28;;;;;;;1.00;0.90;;;19.90;41.00;;;;;;5003052;28;22897;-68
2021/12/02 01:15:54;;;;;;;2.13;1.10;;;19.90;41.10;;;;;;4999444;28;20454;-68
2021/12/02 01:18:20;;;;;;;1.10;1.00;;;19.90;41.00;;;;;;4995723;28;20230;-68
2021/12/02 01:20:49;;;;;;;1.10;1.00;;;19.90;41.10;;;;;;5005884;28;20480;-68
2021/12/02 01:23:17;;;;;;;1.30;1.20;;;19.90;41.00;;;;;;5001609;28;21174;-69
2021/12/02 01:25:47;;;;;;;1.20;1.10;;;19.80;40.90;;;;;;4998578;28;20421;-69
2021/12/02 01:28:13;;;;;;;1.00;0.90;;;19.90;41.10;;;;;;4998599;28;20450;-69
2021/12/02 01:30:40;;;;;;;0.90;0.90;;;19.80;41.00;;;;;;5000067;28;20430;-69
2021/12/02 01:33:07;;;;;;;1.10;1.00;;;19.90;41.00;;;;;;5000500;28;20451;-69
2021/12/02 01:35:34;;;;;;;1.13;1.03;;;19.90;41.00;;;;;;5001718;28;20428;-68
2021/12/02 01:38:00;;;;;;;0.90;0.90;;;19.80;40.90;;;;;;4997172;28;20442;-67
2021/12/02 01:40:27;;;;;;;1.43;1.00;;;19.80;40.90;;;;;;5000025;28;20500;-68
2021/12/02 01:42:55;;;;;;;0.97;0.97;;;19.80;40.90;;;;;;4999856;28;20772;-69
2021/12/02 01:45:28;;;;;;;1.67;1.00;;;19.80;40.90;;;;;;4998246;28;20955;-69
2021/12/02 01:47:56;;;;;;;1.10;1.00;;;19.90;41.00;;;;;;4999676;28;20450;-69
2021/12/02 01:50:24;;;;;;;1.17;1.07;;;19.80;41.00;;;;;;4997871;28;20458;-69
2021/12/02 01:53:01;;;;;;;1.20;1.10;;;19.80;40.90;;;;;;4999689;28;20453;-69
2021/12/02 01:55:28;;;;;;;1.20;0.90;;;19.80;41.00;;;;;;4996665;28;20509;-70
2021/12/02 01:58:00;;;;;;;1.53;1.00;;;19.80;40.90;;;;;;5004632;28;20461;-70
2021/12/02 02:00:46;;;;;;;1.20;1.00;;;19.90;41.50;;;;;;5005273;28;20433;-69
2021/12/02 02:03:16;;;;;;;1.10;1.00;;;19.80;40.90;;;;;;5004407;28;20888;-69
2021/12/02 02:05:42;;;;;;;1.13;0.90;;;19.80;40.90;;;;;;5001680;28;20476;-70
2021/12/02 02:08:17;;;;;;;1.20;1.10;;;19.80;40.90;;;;;;5003242;28;20448;-70
2021/12/02 02:10:44;;;;;;;1.10;1.00;;;19.80;40.90;;;;;;5002305;28;20216;-70
2021/12/02 02:13:11;;;;;;;1.00;0.90;;;19.80;41.00;;;;;;5004991;28;20459;-70
2021/12/02 02:15:38;;;;;;;1.30;1.00;;;19.80;41.00;;;;;;5000342;28;20465;-69
2021/12/02 02:18:11;;;;;;;1.03;0.90;;;19.80;41.00;;;;;;5004042;28;20457;-69
2021/12/02 02:21:03;;;;;;;1.20;1.00;;;19.80;40.90;;;;;;5007038;28;20590;-69
2021/12/02 02:23:32;;;;;;;0.87;0.87;;;19.80;40.90;;;;;;5006150;28;20901;-69
2021/12/02 02:25:59;;;;;;;1.27;1.17;;;19.80;40.90;;;;;;5002959;28;22042;-69
2021/12/02 02:28:26;;;;;;;2.60;1.10;;;19.80;41.00;;;;;;5005709;28;20453;-70
2021/12/02 02:30:52;;;;;;;1.40;1.30;;;19.80;41.00;;;;;;5002129;28;20458;-70
2021/12/02 02:33:20;;;;;;;1.70;1.07;;;19.80;40.90;;;;;;5003030;28;20547;-70
2021/12/02 02:35:46;;;;;;;0.90;0.90;;;19.90;41.10;;;;;;5001992;28;20232;-69
2021/12/02 02:38:14;;;;;;;1.00;0.90;;;19.80;41.70;;;;;;5001127;28;20859;-69
2021/12/02 02:40:43;;;;;;;1.20;0.93;;;19.80;40.90;;;;;;5004184;28;20454;-70
2021/12/02 02:43:10;;;;;;;1.40;1.30;;;19.80;40.90;;;;;;5003876;28;20435;-69
2021/12/02 02:45:37;;;;;;;0.80;0.80;;;19.80;40.90;;;;;;5005578;28;20452;-70
2021/12/02 02:48:03;;;;;;;1.13;0.87;;;19.80;40.90;;;;;;5002360;28;20529;-69
2021/12/02 02:50:30;;;;;;;1.10;1.00;;;19.80;40.90;;;;;;5001510;28;20763;-69
2021/12/02 02:53:02;;;;;;;1.93;1.33;;;19.80;40.90;;;;;;4999989;28;20451;-69
2021/12/02 02:55:28;;;;;;;0.80;0.73;;;19.80;40.90;;;;;;4998482;28;20458;-69
2021/12/02 02:58:12;;;;;;;1.10;1.00;;;19.80;40.90;;;;;;4999991;28;20851;-69
2021/12/02 03:00:47;;;;;;;1.30;1.10;;;19.80;41.00;;;;;;5001744;28;20478;-69
2021/12/02 03:08:45;;;;;;;1.03;0.90;;;19.80;40.90;;;;;;5004689;28;20438;-69
2021/12/02 03:11:13;;;;;;;1.30;1.00;;;19.80;41.00;;;;;;4997856;28;20757;-69
2021/12/02 03:13:48;;;;;;;0.80;0.80;;;19.80;41.00;;;;;;5001043;28;20976;-69
2021/12/02 03:18:59;;;;;;;0.80;0.80;;;19.80;40.90;;;;;;5000155;28;20504;-69
2021/12/02 03:21:25;;;;;;;0.83;0.80;;;19.80;40.90;;;;;;5002379;28;20790;-68
2021/12/02 03:23:52;;;;;;;0.93;0.90;;;19.80;40.90;;;;;;5005003;28;20255;-68
2021/12/02 03:26:18;;;;;;;1.20;1.07;;;19.80;40.90;;;;;;5000336;28;20427;-69
2021/12/02 03:28:50;;;;;;;1.50;0.93;;;19.80;40.90;;;;;;5000504;28;20429;-69
2021/12/02 03:31:17;;;;;;;1.00;0.90;;;19.80;40.90;;;;;;5004584;28;20227;-69
2021/12/02 03:33:42;;;;;;;0.97;0.87;;;19.80;40.90;;;;;;5002005;28;20429;-69
2021/12/02 03:36:09;;;;;;;1.10;1.00;;;19.80;41.00;;;;;;5004250;28;20857;-69
2021/12/02 03:38:35;;;;;;;1.40;0.90;;;19.80;40.90;;;;;;5004105;28;20267;-68
2021/12/02 03:41:01;;;;;;;1.00;0.90;;;19.80;41.00;;;;;;5002211;28;20445;-69
2021/12/02 03:43:32;;;;;;;1.60;1.03;;;19.80;40.90;;;;;;4998037;28;20217;-69
2021/12/02 03:45:58;;;;;;;1.23;1.10;;;19.80;40.90;;;;;;5001810;28;20302;-69
2021/12/02 03:48:23;;;;;;;0.80;0.80;;;19.80;41.00;;;;;;4998598;28;20485;-69
2021/12/02 03:50:49;;;;;;;0.97;0.87;;;19.80;40.90;;;;;;5007162;28;20243;-68
2021/12/02 03:53:14;;;;;;;1.10;1.00;;;19.80;41.00;;;;;;5000095;28;20765;-69
2021/12/02 03:55:40;;;;;;;0.90;0.80;;;19.80;40.90;;;;;;5001297;28;20225;-69
2021/12/02 03:58:06;;;;;;;1.00;0.80;;;19.80;40.90;;;;;;5001928;28;20585;-68
2021/12/02 04:00:31;;;;;;;1.10;1.00;;;19.80;40.90;;;;;;5001250;28;20216;-68
2021/12/02 04:02:57;;;;;;;1.00;0.90;;;19.80;40.90;;;;;;5000576;28;20310;-69
2021/12/02 04:05:22;;;;;;;0.97;0.90;;;19.80;40.90;;;;;;4997633;28;20652;-69
2021/12/02 04:07:48;;;;;;;1.00;0.90;;;19.80;40.90;;;;;;4997396;28;20235;-69
2021/12/02 04:10:14;;;;;;;0.93;0.90;;;19.80;41.00;;;;;;5001443;28;20219;-68
2021/12/02 04:15:15;;;;;;;3.60;0.90;;;19.80;40.90;;;;;;4999409;28;20642;-69
2021/12/02 04:17:43;;;;;;;0.97;0.83;;;19.80;40.90;;;;;;4999794;28;20436;-69
2021/12/02 04:20:22;;;;;;;0.90;0.80;;;19.80;40.90;;;;;;5001348;28;20436;-69
2021/12/02 04:22:48;;;;;;;0.87;0.80;;;19.80;40.90;;;;;;4998940;28;20479;-69
2021/12/02 04:25:14;;;;;;;0.83;0.70;;;19.80;40.90;;;;;;4997222;28;20917;-69
2021/12/02 04:27:40;;;;;;;1.07;0.90;;;19.80;41.00;;;;;;5007073;28;20425;-69
2021/12/02 04:30:09;;;;;;;1.13;0.70;;;19.80;40.90;;;;;;4999115;28;20670;-69
2021/12/02 04:32:35;;;;;;;0.90;0.80;;;19.80;40.90;;;;;;4996808;28;20532;-69
2021/12/02 04:35:00;;;;;;;1.07;0.97;;;19.80;40.90;;;;;;5001485;28;20520;-69
2021/12/02 04:37:26;;;;;;;1.00;0.90;;;19.80;40.90;;;;;;4998908;28;20221;-69
2021/12/02 04:39:52;;;;;;;1.20;0.90;;;19.80;40.90;;;;;;4999978;28;20740;-69
2021/12/02 04:42:17;;;;;;;1.57;0.97;;;19.80;40.90;;;;;;5001817;28;20228;-69
2021/12/02 04:44:43;;;;;;;0.90;0.77;;;19.80;40.90;;;;;;5003756;28;20235;-69
2021/12/02 04:47:09;;;;;;;0.80;0.80;;;19.70;40.80;;;;;;5001282;28;20253;-69
2021/12/02 04:49:35;;;;;;;3.90;1.30;;;19.80;40.90;;;;;;4999874;28;20227;-69
2021/12/02 04:52:01;;;;;;;2.83;0.80;;;19.80;41.00;;;;;;4999648;28;20226;-74
2021/12/02 04:54:27;;;;;;;1.87;0.80;;;19.80;40.90;;;;;;4999881;28;20560;-74
2021/12/02 04:56:53;;;;;;;1.20;1.10;;;19.80;40.90;;;;;;5000442;28;20295;-74
2021/12/02 04:59:18;;;;;;;1.23;0.80;;;19.80;40.90;;;;;;4999785;28;20225;-72
2021/12/02 05:01:44;;;;;;;0.73;0.73;;;19.80;40.90;;;;;;5004812;28;20457;-72
2021/12/02 05:04:10;;;;;;;0.80;0.80;;;19.80;40.90;;;;;;5000257;28;20228;-72
2021/12/02 05:06:35;;;;;;;0.80;0.70;;;19.80;40.90;;;;;;5004807;28;20242;-72
2021/12/02 05:09:01;;;;;;;0.90;0.73;;;19.80;40.90;;;;;;4996300;28;20226;-72
2021/12/02 05:11:27;;;;;;;0.93;0.77;;;19.80;40.90;;;;;;5002453;28;20270;-71
2021/12/02 05:13:52;;;;;;;0.90;0.80;;;19.80;40.90;;;;;;4998496;28;20529;-72
2021/12/02 05:16:18;;;;;;;0.90;0.73;;;19.80;40.90;;;;;;4999276;28;20697;-72
2021/12/02 05:18:43;;;;;;;0.77;0.70;;;19.80;40.80;;;;;;5004180;28;20215;-71
2021/12/02 05:21:09;;;;;;;1.20;0.80;;;19.80;40.80;;;;;;5001264;28;20254;-73
2021/12/02 05:23:35;;;;;;;0.80;0.80;;;19.80;40.80;;;;;;4999482;28;20243;-72
2021/12/02 05:26:01;;;;;;;0.77;0.77;;;19.80;40.80;;;;;;4998556;28;20245;-72
2021/12/02 05:28:26;;;;;;;0.80;0.80;;;19.80;40.80;;;;;;5001079;28;20442;-72
2021/12/02 05:30:52;;;;;;;1.57;0.80;;;19.80;40.80;;;;;;5002970;28;20232;-72
2021/12/02 05:33:18;;;;;;;0.80;0.80;;;19.80;40.80;;;;;;5001417;28;20239;-72
2021/12/02 05:35:44;;;;;;;1.10;0.87;;;19.80;40.80;;;;;;5006799;28;20218;-72
2021/12/02 05:38:10;;;;;;;1.00;0.80;;;19.80;40.80;;;;;;5004529;28;20234;-72
2021/12/02 05:40:36;;;;;;;0.80;0.80;;;19.80;40.80;;;;;;5004631;28;21338;-72
2021/12/02 05:43:02;;;;;;;0.90;0.83;;;19.80;40.80;;;;;;5003563;28;20495;-72
2021/12/02 05:45:29;;;;;;;1.00;0.90;;;19.80;40.70;;;;;;5001167;28;20433;-72
2021/12/02 05:47:55;;;;;;;0.70;0.70;;;19.80;40.80;;;;;;5005471;28;20357;-72
2021/12/02 05:50:20;;;;;;;1.07;0.80;;;19.80;40.70;;;;;;5002103;28;20971;-72
2021/12/02 05:52:46;;;;;;;0.90;0.80;;;19.80;40.80;;;;;;5003601;28;20231;-71
2021/12/02 05:55:12;;;;;;;1.47;0.70;;;19.80;40.70;;;;;;5004047;28;20246;-72
2021/12/02 05:57:38;;;;;;;0.80;0.70;;;19.80;40.80;;;;;;5001732;28;20597;-72
2021/12/02 06:00:05;;;;;;;0.87;0.80;;;19.80;40.70;;;;;;5004976;28;20703;-72
2021/12/02 06:02:31;;;;;;;0.97;0.87;;;19.80;40.70;;;;;;5003972;28;20225;-67
2021/12/02 06:04:57;;;;;;;0.97;0.87;;;19.90;40.80;;;;;;5002952;28;20474;-67
2021/12/02 06:07:22;;;;;;;0.80;0.60;;;19.90;40.80;;;;;;5001127;28;20228;-67
2021/12/02 06:09:52;;;;;;;0.90;0.70;;;19.90;40.70;;;;;;5000479;28;20275;-67
2021/12/02 06:12:18;;;;;;;1.07;0.80;;;19.90;40.80;;;;;;5000234;28;20322;-68
2021/12/02 06:14:43;;;;;;;1.00;0.80;;;19.90;40.70;;;;;;5001266;28;20836;-68
2021/12/02 06:17:09;;;;;;;1.17;0.80;;;19.90;40.70;;;;;;5000266;28;20226;-69
2021/12/02 06:19:35;;;;;;;0.80;0.80;;;19.90;40.70;;;;;;5004046;28;20695;-68
2021/12/02 06:22:01;;;;;;;0.90;0.80;;;19.90;40.70;;;;;;5003697;28;20251;-68
2021/12/02 06:24:41;;;;;;;1.00;0.83;;;19.90;40.70;;;;;;5003213;28;20359;-69
2021/12/02 06:27:07;;;;;;;0.90;0.80;;;19.90;40.60;;;;;;5004098;28;20488;-64
2021/12/02 06:29:32;;;;;;;0.93;0.83;;;19.90;40.70;;;;;;5006009;28;20453;-69
2021/12/02 06:31:58;;;;;;;0.80;0.70;;;20.00;40.60;;;;;;5005552;28;20235;-68
2021/12/02 06:34:23;;;;;;;0.80;0.80;;;19.90;40.60;;;;;;5002884;28;20250;-66
2021/12/02 06:36:49;;;;;;;0.80;0.77;;;19.90;40.60;;;;;;5002016;28;20691;-68
2021/12/02 06:39:15;;;;;;;1.07;0.90;;;20.00;40.60;;;;;;5002787;28;20219;-68
2021/12/02 06:41:40;;;;;;;0.90;0.70;;;20.00;40.60;;;;;;5007309;28;20315;-66
2021/12/02 06:44:06;;;;;;;1.77;1.00;;;20.00;40.60;;;;;;4998331;28;20236;-68
2021/12/02 06:46:31;;;;;;;3.03;1.20;;;20.00;40.60;;;;;;4986994;28;20721;-67
2021/12/02 06:48:57;;;;;;;1.20;0.80;;;20.00;40.50;;;;;;5001353;28;20228;-68
2021/12/02 06:51:23;;;;;;;1.00;0.90;;;20.00;40.50;;;;;;5002404;28;20212;-68
2021/12/02 06:53:49;;;;;;;1.00;0.80;;;20.00;40.50;;;;;;5002409;28;20319;-67
2021/12/02 06:56:15;;;;;;;1.10;0.90;;;20.00;40.50;;;;;;5006787;28;20216;-68
2021/12/02 06:58:40;;;;;;;1.00;0.90;;;20.00;40.50;;;;;;5003818;28;20523;-68
2021/12/02 07:01:06;;;;;;;1.10;0.90;;;20.00;40.50;;;;;;5004059;28;20631;-69
2021/12/02 07:03:31;;;;;;;0.87;0.87;;;20.00;41.30;;;;;;5003860;28;20239;-68
2021/12/02 07:05:57;;;;;;;2.30;0.80;;;20.00;40.50;;;;;;5000166;28;20240;-68
2021/12/02 07:08:24;;;;;;;1.00;0.90;;;20.00;40.60;;;;;;5001403;28;20251;-68
2021/12/02 07:10:50;;;;;;;1.43;0.80;;;20.00;40.50;;;;;;5004507;28;20275;-68
2021/12/02 07:13:16;;;;;;;0.80;0.80;;;20.00;40.50;;;;;;5006613;28;20485;-69
2021/12/02 07:15:49;;;;;;;1.20;0.80;;;20.00;40.60;;;;;;5000038;28;20484;-68
2021/12/02 07:18:15;;;;;;;1.37;1.00;;;20.00;40.60;;;;;;5001772;28;20216;-67
2021/12/02 07:20:43;;;;;;;0.97;0.70;;;20.00;40.60;;;;;;4999939;28;20458;-68
2021/12/02 07:23:09;;;;;;;1.00;0.80;;;20.00;40.60;;;;;;5007550;28;20224;-68
2021/12/02 07:25:34;;;;;;;1.20;1.00;;;20.00;40.50;;;;;;5006133;28;20456;-67
2021/12/02 07:28:01;;;;;;;0.80;0.73;;;20.10;40.60;;;;;;4999382;28;20256;-67
2021/12/02 07:30:27;;;;;;;0.97;0.87;;;20.10;40.50;;;;;;5005816;28;20255;-67
2021/12/02 07:32:55;;;;;;;1.00;0.90;;;20.10;40.40;;;;;;5001057;28;20881;-67
2021/12/02 07:35:22;;;;;;;1.07;0.97;;;20.10;40.30;;;;;;5002582;28;20231;-67
2021/12/02 07:37:50;;;;;;;0.80;0.77;;;20.20;40.30;;;;;;4999018;28;20429;-68
2021/12/02 07:40:18;;;;;;;0.90;0.80;;;20.20;40.30;;;;;;5006137;28;20449;-67
2021/12/02 07:42:45;;;;;;;1.00;0.80;;;20.20;40.30;;;;;;5000849;28;20484;-68
2021/12/02 07:45:11;;;;;;;0.90;0.80;;;20.20;40.30;;;;;;5002783;28;20456;-67
2021/12/02 07:47:39;;;;;;;1.00;0.80;;;20.20;40.40;;;;;;5001229;28;20783;-68
2021/12/02 07:50:07;;;;;;;1.20;1.00;;;20.20;40.40;;;;;;5002652;28;20310;-67
2021/12/02 07:52:34;;;;;;;1.00;0.90;;;20.20;40.40;;;;;;5001363;28;20520;-68
2021/12/02 07:55:05;;;;;;;0.97;0.80;;;20.20;40.50;;;;;;5001288;28;20466;-68
2021/12/02 07:57:33;;;;;;;0.80;0.80;;;20.20;40.40;;;;;;5000459;28;20793;-67
2021/12/02 07:59:58;;;;;;;1.10;1.00;;;20.20;40.50;;;;;;5004246;28;20452;-68
2021/12/02 08:02:28;;;;;;;1.10;0.70;;;20.20;40.50;;;;;;5000534;28;20442;-68
2021/12/02 08:04:54;;;;;;;0.93;0.70;;;20.10;40.30;;;;;;4998215;28;20599;-68
2021/12/02 08:07:20;;;;;;;0.80;0.70;;;20.10;40.40;;;;;;5004033;28;20462;-68
2021/12/02 08:09:45;;;;;;;1.03;0.90;;;20.10;40.30;;;;;;5001401;28;20982;-68
2021/12/02 08:12:11;;;;;;;0.90;0.70;;;20.10;40.30;;;;;;5000718;28;20569;-68
2021/12/02 08:14:37;;;;;;;2.23;0.80;;;20.10;40.40;;;;;;5000969;28;20244;-68
2021/12/02 08:17:03;;;;;;;1.83;1.17;;;20.10;40.50;;;;;;5000851;28;20224;-69
2021/12/02 08:19:29;;;;;;;1.37;0.90;;;20.10;40.50;;;;;;5000253;28;20681;-68
2021/12/02 08:21:55;;;;;;;1.20;1.10;;;20.10;40.50;;;;;;4999153;28;20458;-69
2021/12/02 08:24:23;;;;;;;1.20;0.90;;;20.10;40.50;;;;;;5000062;28;20751;-69
2021/12/02 08:26:49;;;;;;;1.47;1.17;;;20.10;40.50;;;;;;5003398;28;20367;-68
2021/12/02 08:29:15;;;;;;;2.03;0.90;;;20.10;40.50;;;;;;4999081;28;20416;-69
2021/12/02 08:31:41;;;;;;;1.00;0.90;;;20.10;40.50;;;;;;4998187;28;20425;-69
2021/12/02 08:34:06;;;;;;;1.03;0.73;;;20.10;40.50;;;;;;5001197;28;20453;-69
2021/12/02 08:36:44;;;;;;;0.80;0.80;;;20.10;40.50;;;;;;5000571;28;20295;-69
2021/12/02 08:39:15;;;;;;;0.73;0.73;;;20.10;40.50;;;;;;4999362;28;20687;-69
2021/12/02 08:41:43;;;;;;;1.80;0.97;;;20.10;40.40;;;;;;4998955;28;20481;-69
2021/12/02 08:44:09;;;;;;;0.97;0.70;;;20.10;40.50;;;;;;4999826;28;20427;-69
2021/12/02 08:46:34;;;;;;;2.73;0.80;;;20.10;40.50;;;;;;5000333;28;20429;-69
2021/12/02 08:49:00;;;;;;;1.00;0.90;;;20.10;41.20;;;;;;5000322;28;20219;-68
2021/12/02 08:51:26;;;;;;;1.10;0.90;;;20.10;40.40;;;;;;5002266;28;20310;-68
2021/12/02 08:53:52;;;;;;;0.90;0.70;;;20.10;40.40;;;;;;5001806;28;20326;-68
2021/12/02 08:56:17;;;;;;;1.00;0.80;;;20.10;40.50;;;;;;4998731;28;20689;-68
2021/12/02 08:58:43;;;;;;;0.90;0.80;;;20.10;40.40;;;;;;4998432;28;20628;-68
2021/12/02 09:01:08;;;;;;;0.80;0.80;;;20.10;40.30;;;;;;4999568;28;20307;-69
2021/12/02 09:03:36;;;;;;;1.03;0.90;;;20.10;40.40;;;;;;4999701;28;20311;-68
2021/12/02 09:06:02;;;;;;;0.90;0.80;;;20.10;40.30;;;;;;5000847;28;20242;-68
2021/12/02 09:08:28;;;;;;;0.97;0.87;;;20.10;40.40;;;;;;4998755;28;20533;-69
2021/12/02 09:10:56;;;;;;;1.30;0.77;;;20.10;40.30;;;;;;4994417;28;20231;-68
2021/12/02 09:13:23;;;;;;;0.90;0.80;;;20.10;40.40;;;;;;4995764;28;20244;-69
2021/12/02 09:15:48;;;;;;;0.83;0.70;;;20.10;40.30;;;;;;4996348;28;20453;-69
2021/12/02 09:18:14;;;;;;;0.70;0.60;;;20.10;40.30;;;;;;5000075;28;20454;-68
2021/12/02 09:20:41;;;;;;;0.80;0.73;;;20.10;40.30;;;;;;5003603;28;20290;-69
2021/12/02 09:23:07;;;;;;;1.90;1.10;;;20.10;40.30;;;;;;5002336;28;20651;-68
2021/12/02 09:25:32;;;;;;;0.80;0.70;;;20.10;40.30;;;;;;4998079;28;20449;-68
2021/12/02 09:27:58;;;;;;;0.80;0.80;;;20.10;40.30;;;;;;5001945;28;20224;-69
2021/12/02 09:30:25;;;;;;;1.00;0.80;;;20.10;40.40;;;;;;4999664;28;20312;-69
2021/12/02 09:32:51;;;;;;;1.03;0.80;;;20.10;41.10;;;;;;4998677;28;20251;-69
2021/12/02 09:35:16;;;;;;;0.93;0.70;;;20.10;40.40;;;;;;5000017;28;20461;-69
2021/12/02 09:37:43;;;;;;;0.70;0.70;;;20.10;40.30;;;;;;4998526;28;20219;-69
2021/12/02 09:40:11;;;;;;;0.83;0.70;;;20.10;40.40;;;;;;5005783;28;20303;-69
2021/12/02 09:42:37;;;;;;;0.80;0.70;;;20.10;40.40;;;;;;4997503;28;20433;-69
2021/12/02 09:45:04;;;;;;;1.57;0.90;;;20.10;40.40;;;;;;5000917;28;20520;-69
2021/12/02 09:47:42;;;;;;;1.63;0.90;;;20.10;40.40;;;;;;5001441;28;20477;-69
2021/12/02 09:50:14;;;;;;;1.53;0.60;;;20.10;40.30;;;;;;4999818;28;20465;-69
2021/12/02 09:52:41;;;;;;;0.90;0.80;;;20.10;40.40;;;;;;4993168;28;20446;-69
2021/12/02 09:55:18;;;;;;;0.80;0.80;;;20.10;40.40;;;;;;5000745;28;20575;-69
2021/12/02 09:57:49;;;;;;;0.90;0.70;;;20.10;40.40;;;;;;4996323;28;20450;-68
2021/12/02 10:00:22;;;;;;;1.27;0.77;;;20.00;40.30;;;;;;5003617;28;20821;-69
2021/12/02 10:03:02;;;;;;;1.00;0.60;;;20.00;40.30;;;;;;4997702;28;20477;-69
2021/12/02 10:05:38;;;;;;;1.00;0.80;;;20.10;40.40;;;;;;4997325;28;20450;-68
2021/12/02 10:08:07;;;;;;;0.70;0.70;;;20.00;41.10;;;;;;4998610;28;20449;-69
2021/12/02 10:10:38;;;;;;;1.07;0.80;;;20.00;40.30;;;;;;4999743;28;20811;-69
2021/12/02 10:13:15;;;;;;;1.00;0.80;;;20.00;40.30;;;;;;5000125;28;20457;-69
2021/12/02 10:15:50;;;;;;;1.00;0.80;;;20.00;40.40;;;;;;4998615;28;20474;-69
2021/12/02 10:18:17;;;;;;;0.80;0.80;;;20.00;40.30;;;;;;4999716;28;20455;-69
2021/12/02 10:20:46;;;;;;;0.80;0.70;;;20.00;40.30;;;;;;5001082;28;20446;-69
2021/12/02 10:23:28;;;;;;;0.90;0.70;;;20.00;40.40;;;;;;5002514;28;20449;-69
2021/12/02 10:26:01;;;;;;;0.97;0.80;;;20.00;40.30;;;;;;5004065;28;21010;-69
2021/12/02 10:28:28;;;;;;;0.73;0.70;;;20.00;40.30;;;;;;5002596;28;20947;-69
2021/12/02 10:30:57;;;;;;;0.73;0.50;;;20.00;40.30;;;;;;5006533;28;20457;-69
2021/12/02 10:33:35;;;;;;;1.00;0.70;;;20.00;40.30;;;;;;5000852;28;20474;-69
2021/12/02 10:36:04;;;;;;;1.53;1.43;;;20.00;40.30;;;;;;5001700;28;20907;-69
2021/12/02 10:38:38;;;;;;;1.47;0.77;;;20.00;40.40;;;;;;5005041;28;20484;-69
2021/12/02 10:41:20;;;;;;;1.00;0.90;;;20.00;40.30;;;;;;5005396;28;20458;-69
2021/12/02 10:44:14;;;;;;;1.43;0.70;;;20.00;40.40;;;;;;4997632;28;20506;-69
2021/12/02 10:46:57;;;;;;;1.07;0.97;;;19.90;40.30;;;;;;5004487;28;20458;-69
2021/12/02 10:49:24;;;;;;;0.90;0.80;;;19.90;40.30;;;;;;5000360;28;20488;-69
2021/12/02 10:51:53;;;;;;;0.77;0.73;;;19.90;40.30;;;;;;4998034;28;20446;-69
2021/12/02 10:54:23;;;;;;;0.80;0.70;;;19.90;40.20;;;;;;5001495;28;20458;-69
2021/12/02 10:56:52;;;;;;;1.10;0.63;;;19.90;40.30;;;;;;5007388;28;20463;-69
2021/12/02 10:59:25;;;;;;;0.80;0.70;;;19.90;40.30;;;;;;5004190;28;20437;-69
2021/12/02 11:01:52;;;;;;;0.73;0.73;;;19.90;40.30;;;;;;4998540;28;20512;-68
2021/12/02 11:04:20;;;;;;;0.80;0.80;;;19.90;40.20;;;;;;5002089;28;21013;-69
2021/12/02 11:06:47;;;;;;;0.87;0.80;;;19.90;40.20;;;;;;5004768;28;20970;-69
2021/12/02 11:09:33;;;;;;;1.10;1.00;;;19.90;40.20;;;;;;5001326;28;20966;-69
2021/12/02 11:12:22;;;;;;;0.73;0.67;;;19.90;40.20;;;;;;4997616;28;20458;-69
2021/12/02 11:15:04;;;;;;;1.00;0.70;;;19.90;40.20;;;;;;5001998;28;20956;-68
2021/12/02 11:17:33;;;;;;;0.73;0.67;;;19.90;40.20;;;;;;5006699;28;20470;-69
2021/12/02 11:20:03;;;;;;;1.10;0.90;;;19.90;40.20;;;;;;5002486;28;20488;-69
2021/12/02 11:22:29;;;;;;;0.70;0.60;;;19.90;40.20;;;;;;5000169;28;20509;-69
2021/12/02 11:24:56;;;;;;;1.00;0.77;;;19.90;40.20;;;;;;5002679;28;20472;-69
2021/12/02 11:27:28;;;;;;;0.70;0.70;;;19.90;40.20;;;;;;5005931;28;20538;-69
2021/12/02 11:29:59;;;;;;;1.20;0.90;;;19.90;41.00;;;;;;5004910;28;20453;-69
2021/12/02 11:32:44;;;;;;;1.00;0.90;;;19.90;40.10;;;;;;5000970;28;20830;-69
2021/12/02 11:35:27;;;;;;;1.00;0.90;;;19.90;40.10;;;;;;5003015;28;20474;-69
2021/12/02 11:38:05;;;;;;;1.17;0.80;;;19.90;40.20;;;;;;4998956;28;20446;-69
2021/12/02 11:40:36;;;;;;;1.03;0.73;;;19.90;40.20;;;;;;4999698;28;20882;-69
2021/12/02 11:43:02;;;;;;;0.90;0.80;;;19.90;40.20;;;;;;5002556;28;20446;-69
2021/12/02 11:45:31;;;;;;;0.87;0.80;;;19.90;40.20;;;;;;5001429;28;20420;-69
2021/12/02 11:47:58;;;;;;;1.13;0.90;;;19.90;40.20;;;;;;4997569;28;20539;-69
2021/12/02 11:50:26;;;;;;;0.70;0.70;;;19.90;40.20;;;;;;4987698;28;20448;-69
2021/12/02 11:52:53;;;;;;;1.17;1.00;;;19.90;40.10;;;;;;5000883;28;20827;-69
2021/12/02 11:55:23;;;;;;;0.97;0.87;;;19.90;40.10;;;;;;4998784;28;21004;-69
2021/12/02 11:57:50;;;;;;;0.70;0.63;;;19.90;40.10;;;;;;4999907;28;20473;-69
2021/12/02 12:00:18;;;;;;;0.90;0.80;;;19.90;40.10;;;;;;4997873;28;20948;-69
2021/12/02 12:02:52;;;;;;;0.90;0.80;;;19.90;40.10;;;;;;5001935;28;20448;-69
2021/12/02 12:05:34;;;;;;;1.10;0.63;;;19.90;40.10;;;;;;4997416;28;20800;-69
2021/12/02 12:08:00;;;;;;;1.17;0.70;;;19.90;40.10;;;;;;5003177;28;20454;-69
2021/12/02 12:10:41;;;;;;;0.70;0.70;;;19.90;40.20;;;;;;4997965;28;20493;-69
2021/12/02 12:13:16;;;;;;;0.97;0.80;;;19.90;40.10;;;;;;5000700;28;20479;-69
2021/12/02 12:15:44;;;;;;;0.80;0.80;;;19.90;40.20;;;;;;4999673;28;20469;-69
2021/12/02 12:18:18;;;;;;;0.80;0.60;;;19.90;40.20;;;;;;5003899;28;20461;-69
2021/12/02 12:21:03;;;;;;;0.80;0.73;;;19.90;40.10;;;;;;4994630;28;20497;-69
2021/12/02 12:23:34;;;;;;;0.80;0.70;;;19.90;40.10;;;;;;5001586;28;20453;-68
2021/12/02 12:26:17;;;;;;;0.70;0.63;;;19.90;40.10;;;;;;4996714;28;20466;-69
2021/12/02 12:29:08;;;;;;;1.60;0.90;;;19.90;40.10;;;;;;4997406;28;20458;-69
2021/12/02 12:31:47;;;;;;;0.83;0.83;;;19.90;40.10;;;;;;4987219;28;20881;-69
2021/12/02 12:34:33;;;;;;;1.07;0.97;;;19.90;40.10;;;;;;4999899;28;20957;-69
2021/12/02 12:37:01;;;;;;;1.00;0.90;;;19.90;40.10;;;;;;5004764;28;20461;-69
2021/12/02 12:39:32;;;;;;;1.13;0.80;;;19.90;40.10;;;;;;5005507;28;20445;-69
2021/12/02 12:42:16;;;;;;;1.23;1.13;;;19.90;40.10;;;;;;5000002;28;20461;-68
2021/12/02 12:44:48;;;;;;;0.90;0.80;;;19.90;40.10;;;;;;5000344;28;20479;-69
2021/12/02 12:47:13;;;;;;;1.00;0.90;;;19.90;40.10;;;;;;4998308;28;20955;-69
2021/12/02 12:49:39;;;;;;;0.80;0.80;;;19.90;40.10;;;;;;5001836;28;20453;-69
2021/12/02 12:52:20;;;;;;;0.70;0.70;;;19.90;40.10;;;;;;5000920;28;20224;-69
2021/12/02 12:55:15;;;;;;;0.90;0.80;;;19.90;40.10;;;;;;5000583;28;20252;-69
2021/12/02 12:58:13;;;;;;;1.00;0.90;;;19.90;40.10;;;;;;4998870;28;20441;-69
2021/12/02 13:00:54;;;;;;;1.10;1.00;;;19.90;40.00;;;;;;5001070;28;20508;-69
2021/12/02 13:03:44;;;;;;;0.80;0.70;;;19.90;40.10;;;;;;4998846;28;20461;-70
2021/12/02 13:06:31;;;;;;;1.00;0.90;;;19.90;40.10;;;;;;4994982;28;20532;-69
2021/12/02 13:09:01;;;;;;;0.93;0.80;;;19.90;40.10;;;;;;4999635;28;20538;-69
2021/12/02 13:11:32;;;;;;;1.00;0.90;;;19.90;40.10;;;;;;5001861;28;20445;-69
2021/12/02 13:14:01;;;;;;;1.10;1.00;;;19.90;40.10;;;;;;4994462;28;20459;-69